Time;durP1;ratioP1;P1;durP2;ratioP2;P2;SDS_P1;SDS_P2;PMS_P1;PMS_P2;Temp;Humidity;BMP_temperature;BMP_pressure;BME280_temperature;BME280_humidity;BME280_pressure;Samples;Min_cycle;Max_cycle;Signal;HPM_P1;HPM_P2
2022/04/28 00:02:14;;;;;;;;;;;5.60;99.90;;;;;;5123138;28;19955;-47
2022/04/28 00:04:40;;;;;;;;;;;5.60;99.90;;;;;;5124006;28;19924;-47
2022/04/28 00:07:05;;;;;;;;;;;5.50;99.90;;;;;;5122885;28;19924;-47
2022/04/28 00:09:30;;;;;;;;;;;5.50;99.90;;;;;;5123293;28;19931;-48
2022/04/28 00:11:56;;;;;;;;;;;5.50;99.90;;;;;;5123205;28;19934;-47
2022/04/28 00:14:21;;;;;;;;;;;5.50;99.90;;;;;;5124631;28;19924;-46
2022/04/28 00:16:47;;;;;;;;;;;5.40;99.90;;;;;;5125280;28;19924;-47
2022/04/28 00:19:12;;;;;;;;;;;5.40;99.90;;;;;;5123067;28;19923;-46
2022/04/28 00:21:38;;;;;;;;;;;5.40;99.90;;;;;;5123732;28;20060;-46
2022/04/28 00:24:03;;;;;;;;;;;5.40;99.90;;;;;;5122313;28;19935;-45
2022/04/28 00:26:29;;;;;;;;;;;5.40;99.90;;;;;;5122725;28;19923;-47
2022/04/28 00:28:54;;;;;;;;;;;5.30;99.90;;;;;;5122998;28;19946;-50
2022/04/28 00:31:20;;;;;;;;;;;5.30;99.90;;;;;;5123111;28;19924;-46
2022/04/28 00:33:48;;;;;;;;;;;5.30;99.90;;;;;;5122682;28;19935;-47
2022/04/28 00:36:14;;;;;;;;;;;5.20;99.90;;;;;;5122412;28;19924;-49
2022/04/28 00:38:39;;;;;;;;;;;5.20;99.90;;;;;;5121735;28;19952;-46
2022/04/28 00:41:05;;;;;;;;;;;5.20;99.90;;;;;;5121609;28;19955;-47
2022/04/28 00:43:31;;;;;;;;;;;5.10;99.90;;;;;;5122236;28;20019;-50
2022/04/28 00:45:57;;;;;;;;;;;5.00;99.90;;;;;;5121495;28;19928;-51
2022/04/28 00:51:07;;;;;;;;;;;5.00;99.90;;;;;;5121094;28;19962;-50
2022/04/28 00:53:40;;;;;;;;;;;5.00;99.90;;;;;;5122672;28;20095;-49
2022/04/28 00:56:09;;;;;;;;;;;4.90;99.90;;;;;;5121798;28;19967;-47
2022/04/28 00:58:36;;;;;;;;;;;4.90;99.90;;;;;;5121514;28;19991;-49
2022/04/28 01:01:01;;;;;;;;;;;4.90;99.90;;;;;;5122077;28;19924;-49
2022/04/28 01:03:30;;;;;;;;;;;4.90;99.90;;;;;;5103824;28;19946;-46
2022/04/28 01:05:56;;;;;;;;;;;4.90;99.90;;;;;;5122154;28;19924;-50
2022/04/28 01:08:21;;;;;;;;;;;4.90;99.90;;;;;;5121546;28;19930;-49
2022/04/28 01:10:47;;;;;;;;;;;4.80;99.90;;;;;;5121285;28;19924;-47
2022/04/28 01:13:12;;;;;;;;;;;4.80;99.90;;;;;;5121414;28;20002;-49
2022/04/28 01:15:48;;;;;;;;;;;4.80;99.90;;;;;;5121311;28;19924;-49
2022/04/28 01:18:14;;;;;;;;;;;4.80;99.90;;;;;;5120698;28;19928;-47
2022/04/28 01:20:40;;;;;;;;;;;4.70;99.90;;;;;;5120423;28;19924;-46
2022/04/28 01:23:06;;;;;;;;;;;4.70;99.90;;;;;;5120896;28;20378;-47
2022/04/28 01:25:32;;;;;;;;;;;4.70;99.90;;;;;;5101957;28;19931;-49
2022/04/28 01:27:57;;;;;;;;;;;4.60;99.90;;;;;;5120377;28;19924;-47
2022/04/28 01:30:23;;;;;;;;;;;4.60;99.90;;;;;;5122965;28;20450;-46
2022/04/28 01:32:49;;;;;;;;;;;4.60;99.90;;;;;;5127181;28;19931;-47
2022/04/28 01:35:14;;;;;;;;;;;4.60;99.90;;;;;;5126942;28;20018;-48
2022/04/28 01:37:41;;;;;;;;;;;4.50;99.90;;;;;;5128128;28;19924;-45
2022/04/28 01:40:11;;;;;;;;;;;4.50;99.90;;;;;;5128521;28;19928;-46
2022/04/28 01:42:45;;;;;;;;;;;4.50;99.90;;;;;;5128064;28;19967;-46
2022/04/28 01:45:10;;;;;;;;;;;4.40;99.90;;;;;;5128086;28;19931;-48
2022/04/28 01:47:36;;;;;;;;;;;4.40;99.90;;;;;;5127881;28;19928;-50
2022/04/28 01:55:23;;;;;;;;;;;4.40;99.90;;;;;;5085219;28;21297;-47
2022/04/28 01:57:49;;;;;;;;;;;4.40;99.90;;;;;;5099832;28;19924;-47
2022/04/28 02:00:15;;;;;;;;;;;4.40;99.90;;;;;;5088679;28;19964;-48
2022/04/28 02:02:40;;;;;;;;;;;4.30;99.90;;;;;;5079425;28;19928;-47
2022/04/28 02:05:07;;;;;;;;;;;4.30;99.90;;;;;;5079531;28;19978;-47
2022/04/28 02:07:33;;;;;;;;;;;4.30;99.90;;;;;;5080341;28;19924;-47
2022/04/28 02:09:59;;;;;;;;;;;4.30;99.90;;;;;;5099816;28;19924;-49
2022/04/28 02:12:25;;;;;;;;;;;4.30;99.90;;;;;;5099790;28;19931;-49
2022/04/28 02:14:51;;;;;;;;;;;4.20;99.90;;;;;;5099790;28;19924;-50
2022/04/28 02:17:26;;;;;;;;;;;4.20;99.90;;;;;;5099557;28;19924;-49
2022/04/28 02:19:52;;;;;;;;;;;4.10;99.90;;;;;;5100040;28;19939;-48
2022/04/28 02:22:18;;;;;;;;;;;4.10;99.90;;;;;;5099759;28;20009;-49
2022/04/28 02:24:44;;;;;;;;;;;4.10;99.90;;;;;;5097925;28;19927;-46
2022/04/28 02:27:10;;;;;;;;;;;4.10;99.90;;;;;;5079226;28;20430;-46
2022/04/28 02:29:35;;;;;;;;;;;4.00;99.90;;;;;;5079337;28;19982;-50
2022/04/28 02:32:01;;;;;;;;;;;4.00;99.90;;;;;;5079176;28;19946;-52
2022/04/28 02:34:27;;;;;;;;;;;4.00;99.90;;;;;;5079150;28;19931;-49
2022/04/28 02:36:53;;;;;;;;;;;3.90;99.90;;;;;;5079398;28;19960;-48
2022/04/28 02:39:18;;;;;;;;;;;3.90;99.90;;;;;;5079318;28;20402;-46
2022/04/28 02:41:44;;;;;;;;;;;3.90;99.90;;;;;;5077401;28;19924;-50
2022/04/28 02:44:12;;;;;;;;;;;3.90;99.90;;;;;;5075957;28;20451;-47
2022/04/28 02:46:37;;;;;;;;;;;3.90;99.90;;;;;;5075713;28;19969;-48
2022/04/28 02:49:04;;;;;;;;;;;3.90;99.90;;;;;;5076030;28;20282;-46
2022/04/28 02:51:29;;;;;;;;;;;3.90;99.90;;;;;;5075773;28;19931;-48
2022/04/28 02:53:55;;;;;;;;;;;3.90;99.90;;;;;;5075955;28;19924;-47
2022/04/28 02:56:21;;;;;;;;;;;3.90;99.90;;;;;;5075888;28;19931;-46
2022/04/28 02:58:46;;;;;;;;;;;3.80;99.90;;;;;;5076738;28;20007;-47
2022/04/28 03:01:12;;;;;;;;;;;3.80;99.90;;;;;;5095805;28;19931;-47
2022/04/28 03:03:37;;;;;;;;;;;3.70;99.90;;;;;;5096021;28;20302;-47
2022/04/28 03:11:31;;;;;;;;;;;3.60;99.90;;;;;;5095823;28;20309;-50
2022/04/28 03:13:56;;;;;;;;;;;3.60;99.90;;;;;;5096136;28;19924;-49
2022/04/28 03:16:22;;;;;;;;;;;3.50;99.90;;;;;;5095795;28;20342;-48
2022/04/28 03:18:48;;;;;;;;;;;3.50;99.90;;;;;;5077691;28;20365;-47
2022/04/28 03:21:13;;;;;;;;;;;3.50;99.90;;;;;;5095649;28;19930;-46
2022/04/28 03:23:39;;;;;;;;;;;3.40;99.90;;;;;;5095589;28;19924;-50
2022/04/28 03:26:05;;;;;;;;;;;3.40;99.90;;;;;;5095452;28;19928;-48
2022/04/28 03:28:35;;;;;;;;;;;3.40;99.90;;;;;;5095224;28;20401;-48
2022/04/28 03:31:01;;;;;;;;;;;3.40;99.90;;;;;;5095444;28;20438;-49
2022/04/28 03:33:26;;;;;;;;;;;3.30;99.90;;;;;;5095400;28;19924;-48
2022/04/28 03:35:52;;;;;;;;;;;3.20;99.90;;;;;;5095345;28;20313;-48
2022/04/28 03:38:18;;;;;;;;;;;3.20;99.90;;;;;;5095145;28;20386;-47
2022/04/28 03:40:43;;;;;;;;;;;3.30;99.90;;;;;;5095118;28;19924;-47
2022/04/28 03:43:09;;;;;;;;;;;3.30;99.90;;;;;;5076809;28;20366;-48
2022/04/28 03:45:35;;;;;;;;;;;3.30;99.90;;;;;;5095008;28;19924;-48
2022/04/28 03:48:01;;;;;;;;;;;3.20;99.90;;;;;;5095017;28;20182;-47
2022/04/28 03:50:30;;;;;;;;;;;3.20;99.90;;;;;;5095014;28;20427;-47
2022/04/28 03:52:56;;;;;;;;;;;3.20;99.90;;;;;;5094601;28;20338;-47
2022/04/28 03:55:22;;;;;;;;;;;3.10;99.90;;;;;;5094705;28;19924;-51
2022/04/28 03:57:47;;;;;;;;;;;3.10;99.90;;;;;;5094970;28;19946;-48
2022/04/28 04:00:13;;;;;;;;;;;3.10;99.90;;;;;;5094968;28;20388;-48
2022/04/28 04:02:39;;;;;;;;;;;3.10;99.90;;;;;;5077037;28;19924;-48
2022/04/28 04:05:04;;;;;;;;;;;3.10;99.90;;;;;;5094787;28;20385;-45
2022/04/28 04:07:31;;;;;;;;;;;3.10;99.90;;;;;;5094586;28;19925;-46
2022/04/28 04:09:57;;;;;;;;;;;3.00;99.90;;;;;;5094589;28;19924;-44
2022/04/28 04:12:22;;;;;;;;;;;3.10;99.90;;;;;;5094749;28;19978;-47
2022/04/28 04:14:48;;;;;;;;;;;3.00;99.90;;;;;;5094564;28;20290;-47
2022/04/28 04:17:14;;;;;;;;;;;3.10;99.90;;;;;;5094585;28;19928;-50
2022/04/28 04:19:39;;;;;;;;;;;3.10;99.90;;;;;;5076236;28;19959;-46
2022/04/28 04:22:04;;;;;;;;;;;3.10;99.90;;;;;;5094503;28;19924;-45
2022/04/28 04:24:30;;;;;;;;;;;3.10;99.90;;;;;;5094313;28;20453;-49
2022/04/28 04:26:56;;;;;;;;;;;3.10;99.90;;;;;;5093978;28;19935;-48
2022/04/28 04:29:21;;;;;;;;;;;3.10;99.90;;;;;;5094402;28;20011;-49
2022/04/28 04:34:31;;;;;;;;;;;3.40;99.90;;;;;;5094121;28;19931;-47
2022/04/28 04:36:56;;;;;;;;;;;3.50;99.90;;;;;;5094119;28;19924;-49
2022/04/28 04:39:21;;;;;;;;;;;3.50;99.90;;;;;;5093916;28;19924;-50
2022/04/28 04:41:47;;;;;;;;;;;3.60;99.90;;;;;;5094206;28;20023;-48
2022/04/28 04:44:15;;;;;;;;;;;3.80;99.90;;;;;;5094035;28;20366;-48
2022/04/28 04:46:41;;;;;;;;;;;3.90;99.90;;;;;;5093933;28;19924;-47
2022/04/28 04:49:07;;;;;;;;;;;4.00;99.90;;;;;;5076148;28;20023;-48
2022/04/28 04:51:33;;;;;;;;;;;4.20;99.90;;;;;;5093837;28;20017;-47
2022/04/28 04:53:58;;;;;;;;;;;4.30;99.90;;;;;;5093559;28;19931;-46
2022/04/28 04:56:24;;;;;;;;;;;4.40;99.90;;;;;;5093687;28;20015;-48
2022/04/28 04:58:49;;;;;;;;;;;4.60;99.90;;;;;;5093860;28;20038;-47
2022/04/28 05:01:15;;;;;;;;;;;4.70;99.90;;;;;;5093667;28;19931;-51
2022/04/28 05:03:41;;;;;;;;;;;4.80;99.90;;;;;;5093676;28;19924;-50
2022/04/28 05:06:07;;;;;;;;;;;4.90;99.90;;;;;;5093082;28;19928;-49
2022/04/28 05:08:32;;;;;;;;;;;4.90;99.90;;;;;;5093436;28;19924;-47
2022/04/28 05:10:58;;;;;;;;;;;5.10;99.90;;;;;;5093708;28;19924;-48
2022/04/28 05:13:23;;;;;;;;;;;5.10;99.90;;;;;;5093584;28;19924;-51
2022/04/28 05:15:49;;;;;;;;;;;5.20;99.90;;;;;;5093526;28;20366;-50
2022/04/28 05:18:14;;;;;;;;;;;5.30;99.90;;;;;;5093546;28;20069;-47
2022/04/28 05:20:40;;;;;;;;;;;5.40;99.90;;;;;;5093505;28;19924;-48
2022/04/28 05:23:05;;;;;;;;;;;5.50;99.90;;;;;;5093219;28;20290;-46
2022/04/28 05:25:31;;;;;;;;;;;5.60;99.90;;;;;;5093570;28;19924;-47
2022/04/28 05:27:56;;;;;;;;;;;5.70;99.90;;;;;;5093328;28;19924;-46
2022/04/28 05:30:22;;;;;;;;;;;5.90;99.90;;;;;;5093379;28;19924;-46
2022/04/28 05:32:48;;;;;;;;;;;6.00;99.90;;;;;;5093296;28;19924;-47
2022/04/28 05:35:14;;;;;;;;;;;6.10;99.90;;;;;;5093276;28;19931;-48
2022/04/28 05:37:40;;;;;;;;;;;6.20;99.90;;;;;;5093271;28;20336;-46
2022/04/28 05:40:06;;;;;;;;;;;6.20;99.90;;;;;;5093499;28;19924;-47
2022/04/28 05:45:41;;;;;;;;;;;6.40;99.90;;;;;;5093300;28;19924;-50
2022/04/28 05:45:46;;;;;;;;;;;6.50;99.90;;;;;;5093085;28;19946;-50
2022/04/28 05:48:18;;;;;;;;;;;6.60;99.90;;;;;;5093369;28;19986;-51
2022/04/28 05:50:44;;;;;;;;;;;6.80;99.90;;;;;;5093030;28;19969;-51
2022/04/28 05:53:10;;;;;;;;;;;6.80;99.90;;;;;;5093269;28;19928;-48
2022/04/28 05:55:36;;;;;;;;;;;7.00;99.90;;;;;;5093283;28;19924;-52
2022/04/28 05:58:01;;;;;;;;;;;7.10;99.90;;;;;;5093066;28;19981;-48
2022/04/28 06:00:28;;;;;;;;;;;7.20;99.90;;;;;;5092934;28;19924;-51
2022/04/28 06:02:54;;;;;;;;;;;7.40;99.90;;;;;;5093185;28;19928;-47
2022/04/28 06:05:20;;;;;;;;;;;7.70;99.90;;;;;;5092999;28;20383;-48
2022/04/28 06:07:45;;;;;;;;;;;7.60;99.90;;;;;;5092981;28;19970;-46
2022/04/28 06:10:12;;;;;;;;;;;7.80;99.90;;;;;;5092974;28;19932;-49
2022/04/28 06:12:38;;;;;;;;;;;7.80;99.90;;;;;;5093050;28;19928;-47
2022/04/28 06:15:03;;;;;;;;;;;7.90;99.90;;;;;;5092783;28;19924;-47
2022/04/28 06:17:29;;;;;;;;;;;8.00;99.90;;;;;;5094242;28;20453;-48
2022/04/28 06:19:54;;;;;;;;;;;8.10;99.90;;;;;;5096884;28;20297;-50
2022/04/28 06:22:20;;;;;;;;;;;8.20;99.90;;;;;;5096817;28;19931;-51
2022/04/28 06:24:49;;;;;;;;;;;8.30;99.90;;;;;;5096739;28;19977;-49
2022/04/28 06:27:15;;;;;;;;;;;8.30;99.90;;;;;;5096721;28;19946;-48
2022/04/28 06:29:40;;;;;;;;;;;8.40;99.90;;;;;;5096472;28;20386;-46
2022/04/28 06:32:07;;;;;;;;;;;8.40;99.90;;;;;;5078370;28;19924;-48
2022/04/28 06:34:33;;;;;;;;;;;8.40;99.90;;;;;;5096768;28;19924;-52
2022/04/28 06:36:58;;;;;;;;;;;8.50;99.90;;;;;;5096428;28;20019;-49
2022/04/28 06:39:23;;;;;;;;;;;8.50;99.90;;;;;;5096383;28;19924;-51
2022/04/28 06:41:49;;;;;;;;;;;8.60;99.90;;;;;;5096376;28;19934;-48
2022/04/28 06:44:15;;;;;;;;;;;8.60;99.90;;;;;;5078146;28;20275;-47
2022/04/28 06:46:40;;;;;;;;;;;8.60;99.90;;;;;;5096081;28;19924;-47
2022/04/28 06:49:06;;;;;;;;;;;8.60;99.90;;;;;;5096302;28;19924;-47
2022/04/28 06:51:31;;;;;;;;;;;8.50;99.90;;;;;;5096054;28;19931;-51
2022/04/28 06:53:59;;;;;;;;;;;8.60;99.90;;;;;;5096134;28;20368;-47
2022/04/28 06:56:25;;;;;;;;;;;8.60;99.90;;;;;;5095981;28;19924;-51
2022/04/28 06:58:51;;;;;;;;;;;8.60;99.90;;;;;;5077867;28;20418;-51
2022/04/28 07:01:16;;;;;;;;;;;8.60;99.90;;;;;;5096134;28;19928;-50
2022/04/28 07:03:41;;;;;;;;;;;8.70;99.90;;;;;;5078012;28;19931;-47
2022/04/28 07:06:07;;;;;;;;;;;8.80;99.90;;;;;;5095801;28;19950;-49
2022/04/28 07:08:32;;;;;;;;;;;8.70;99.90;;;;;;5095806;28;19975;-47
2022/04/28 07:10:58;;;;;;;;;;;8.80;99.90;;;;;;5095807;28;20386;-46
2022/04/28 07:13:24;;;;;;;;;;;8.80;99.90;;;;;;5095737;28;19986;-49
2022/04/28 07:15:49;;;;;;;;;;;8.80;99.90;;;;;;5077786;28;19924;-50
2022/04/28 07:18:16;;;;;;;;;;;8.80;99.90;;;;;;5095859;28;19924;-48
2022/04/28 07:20:41;;;;;;;;;;;8.80;99.90;;;;;;5095654;28;20303;-49
2022/04/28 07:23:06;;;;;;;;;;;8.90;99.90;;;;;;5095797;28;19935;-51
2022/04/28 07:25:33;;;;;;;;;;;8.90;99.90;;;;;;5095460;28;20042;-47
2022/04/28 07:27:58;;;;;;;;;;;9.00;99.90;;;;;;5094751;28;19924;-48
2022/04/28 07:30:26;;;;;;;;;;;9.10;99.90;;;;;;5077518;28;19950;-50
2022/04/28 07:32:54;;;;;;;;;;;9.20;99.90;;;;;;5095421;28;20015;-48
2022/04/28 07:35:20;;;;;;;;;;;9.30;99.90;;;;;;5095373;28;19938;-51
2022/04/28 07:37:46;;;;;;;;;;;9.50;99.90;;;;;;5095318;28;19924;-48
2022/04/28 07:40:12;;;;;;;;;;;9.60;99.90;;;;;;5095227;28;19931;-47
2022/04/28 07:42:37;;;;;;;;;;;9.60;99.90;;;;;;5095031;28;19982;-50
2022/04/28 07:45:03;;;;;;;;;;;9.70;99.90;;;;;;5094999;28;19924;-48
2022/04/28 07:47:29;;;;;;;;;;;9.90;99.90;;;;;;5094861;28;19970;-48
2022/04/28 07:49:55;;;;;;;;;;;10.00;99.90;;;;;;5095085;28;20298;-48
2022/04/28 07:52:21;;;;;;;;;;;10.10;99.90;;;;;;5095185;28;19924;-50
2022/04/28 07:54:46;;;;;;;;;;;10.10;99.90;;;;;;5094985;28;20340;-50
2022/04/28 07:57:12;;;;;;;;;;;10.20;99.90;;;;;;5094860;28;19928;-51
2022/04/28 07:59:38;;;;;;;;;;;10.20;99.90;;;;;;5094905;28;19924;-50
2022/04/28 08:02:04;;;;;;;;;;;10.30;99.90;;;;;;5094890;28;20007;-50
2022/04/28 08:04:30;;;;;;;;;;;10.30;99.90;;;;;;5094752;28;19967;-51
2022/04/28 08:06:56;;;;;;;;;;;10.40;99.90;;;;;;5094647;28;20018;-51
2022/04/28 08:09:21;;;;;;;;;;;;;;;;;;5094679;28;19924;-52
2022/04/28 08:11:47;;;;;;;;;;;10.90;99.90;;;;;;5094724;28;20394;-47
2022/04/28 08:14:12;;;;;;;;;;;10.80;99.90;;;;;;5076730;28;19928;-52
2022/04/28 08:16:38;;;;;;;;;;;11.00;99.90;;;;;;5094402;28;20393;-50
2022/04/28 08:19:04;;;;;;;;;;;11.20;99.90;;;;;;5076729;28;20041;-50
2022/04/28 08:21:30;;;;;;;;;;;11.10;99.90;;;;;;5094679;28;20385;-52
2022/04/28 08:23:55;;;;;;;;;;;11.10;99.90;;;;;;5094529;28;19930;-51
2022/04/28 08:26:21;;;;;;;;;;;10.70;99.90;;;;;;5059722;28;20019;-48
2022/04/28 08:28:46;;;;;;;;;;;10.80;99.90;;;;;;5094227;28;19959;-48
2022/04/28 08:31:12;;;;;;;;;;;11.40;99.90;;;;;;5094556;28;19931;-50
2022/04/28 08:33:37;;;;;;;;;;;11.70;99.90;;;;;;5094537;28;19924;-50
2022/04/28 08:36:03;;;;;;;;;;;12.10;99.90;;;;;;5094378;28;19970;-47
2022/04/28 08:38:29;;;;;;;;;;;12.10;99.90;;;;;;5094222;28;20358;-48
2022/04/28 08:40:58;;;;;;;;;;;12.40;99.90;;;;;;5093167;28;19931;-49
2022/04/28 08:43:25;;;;;;;;;;;12.40;99.90;;;;;;5094348;28;19931;-47
2022/04/28 08:48:42;;;;;;;;;;;12.20;99.90;;;;;;5094269;28;19969;-52
2022/04/28 08:51:09;;;;;;;;;;;12.10;99.90;;;;;;5094154;28;19975;-50
2022/04/28 08:53:34;;;;;;;;;;;11.90;99.90;;;;;;5093752;28;19931;-47
2022/04/28 08:55:59;;;;;;;;;;;11.50;99.90;;;;;;5094250;28;19932;-49
2022/04/28 08:58:25;;;;;;;;;;;11.80;99.90;;;;;;5093895;28;20410;-48
2022/04/28 09:00:51;;;;;;;;;;;11.70;99.90;;;;;;5075805;28;19924;-49
2022/04/28 09:03:16;;;;;;;;;;;11.60;99.90;;;;;;5093836;28;19924;-48
2022/04/28 09:05:42;;;;;;;;;;;12.00;99.90;;;;;;5093918;28;19928;-47
2022/04/28 09:08:07;;;;;;;;;;;12.20;99.90;;;;;;5075457;28;19935;-47
2022/04/28 09:10:33;;;;;;;;;;;12.20;99.90;;;;;;5093497;28;19924;-47
2022/04/28 09:15:51;;;;;;;;;;;12.20;99.90;;;;;;5094116;28;19925;-47
2022/04/28 09:18:17;;;;;;;;;;;12.40;99.90;;;;;;5093486;28;20301;-51
2022/04/28 09:20:43;;;;;;;;;;;12.60;99.90;;;;;;5093694;28;19928;-46
2022/04/28 09:23:10;;;;;;;;;;;12.30;99.90;;;;;;5093649;28;19924;-47
2022/04/28 09:25:35;;;;;;;;;;;12.00;99.90;;;;;;5093401;28;20460;-48
2022/04/28 09:28:04;;;;;;;;;;;12.20;99.90;;;;;;5075283;28;19932;-47
2022/04/28 09:30:47;;;;;;;;;;;12.40;99.90;;;;;;5093400;28;19924;-47
2022/04/28 09:33:13;;;;;;;;;;;12.50;99.90;;;;;;5093548;28;19928;-47
2022/04/28 09:35:46;;;;;;;;;;;12.60;99.90;;;;;;5093668;28;20355;-47
2022/04/28 09:38:12;;;;;;;;;;;12.50;99.90;;;;;;5093301;28;20017;-47
2022/04/28 09:43:21;;;;;;;;;;;12.50;99.90;;;;;;5093302;28;19932;-47
2022/04/28 09:45:48;;;;;;;;;;;12.80;99.90;;;;;;5093574;28;20324;-50
2022/04/28 09:48:17;;;;;;;;;;;13.20;99.90;;;;;;5093263;28;19930;-49
2022/04/28 09:50:43;;;;;;;;;;;13.70;99.90;;;;;;5093148;28;20007;-47
2022/04/28 09:53:08;;;;;;;;;;;13.30;99.90;;;;;;5097217;28;20358;-51
2022/04/28 09:55:34;;;;;;;;;;;13.50;99.90;;;;;;5097415;28;20080;-49
2022/04/28 09:58:01;;;;;;;;;;;13.60;99.90;;;;;;5097083;28;20336;-50
2022/04/28 10:00:27;;;;;;;;;;;13.80;99.90;;;;;;5097314;28;19924;-47
2022/04/28 10:02:54;;;;;;;;;;;13.90;99.90;;;;;;5097303;28;20389;-47
2022/04/28 10:05:20;;;;;;;;;;;13.80;99.90;;;;;;5097152;28;19932;-46
2022/04/28 10:07:47;;;;;;;;;;;14.00;99.90;;;;;;5097000;28;19924;-51
2022/04/28 10:10:13;;;;;;;;;;;14.70;99.90;;;;;;5096859;28;20362;-47
2022/04/28 10:12:39;;;;;;;;;;;14.20;99.90;;;;;;5096801;28;19924;-49
2022/04/28 10:15:06;;;;;;;;;;;14.30;99.90;;;;;;5097072;28;19924;-47
2022/04/28 10:17:40;;;;;;;;;;;14.20;99.90;;;;;;5096775;28;20413;-47
2022/04/28 10:20:11;;;;;;;;;;;14.10;99.90;;;;;;5079043;28;20366;-47
2022/04/28 10:22:37;;;;;;;;;;;13.80;99.90;;;;;;5096898;28;19924;-49
2022/04/28 10:33:24;;;;;;;;;;;13.30;99.90;;;;;;5096476;28;19924;-47
2022/04/28 10:35:50;;;;;;;;;;;13.70;99.90;;;;;;5096656;28;19924;-47
2022/04/28 10:38:18;;;;;;;;;;;13.50;99.90;;;;;;5096675;28;20297;-47
2022/04/28 10:41:04;;;;;;;;;;;13.30;99.90;;;;;;5096947;28;20011;-47
2022/04/28 10:43:33;;;;;;;;;;;13.20;99.90;;;;;;5095884;28;20011;-46
2022/04/28 10:46:24;;;;;;;;;;;13.60;99.90;;;;;;5078359;28;20388;-46
2022/04/28 10:48:54;;;;;;;;;;;14.10;99.90;;;;;;5091146;28;20374;-47
2022/04/28 10:51:22;;;;;;;;;;;14.10;99.90;;;;;;5096175;28;19928;-51
2022/04/28 10:54:00;;;;;;;;;;;14.00;99.90;;;;;;5096273;28;19924;-47
2022/04/28 10:56:30;;;;;;;;;;;14.00;99.90;;;;;;5096155;28;20298;-47
2022/04/28 10:58:58;;;;;;;;;;;13.90;99.90;;;;;;5096236;28;19978;-47
2022/04/28 11:01:33;;;;;;;;;;;14.00;99.90;;;;;;5096175;28;19976;-49
2022/04/28 11:04:00;;;;;;;;;;;13.90;99.90;;;;;;5095130;28;19924;-47
2022/04/28 11:06:28;;;;;;;;;;;14.00;99.60;;;;;;5095802;28;19950;-49
2022/04/28 11:08:55;;;;;;;;;;;14.00;99.70;;;;;;5095728;28;20336;-48
2022/04/28 11:11:24;;;;;;;;;;;13.80;99.80;;;;;;5077645;28;19928;-48
2022/04/28 11:13:56;;;;;;;;;;;14.00;99.90;;;;;;5096012;28;19978;-51
2022/04/28 11:16:22;;;;;;;;;;;13.90;99.60;;;;;;5096274;28;19924;-47
2022/04/28 11:18:47;;;;;;;;;;;14.10;99.00;;;;;;5095816;28;19930;-48
2022/04/28 11:21:14;;;;;;;;;;;14.40;98.50;;;;;;5095587;28;19954;-50
2022/04/28 11:23:45;;;;;;;;;;;14.80;97.20;;;;;;5095746;28;20286;-47
2022/04/28 11:26:11;;;;;;;;;;;15.20;97.40;;;;;;5095661;28;19939;-47
2022/04/28 11:28:37;;;;;;;;;;;14.90;96.60;;;;;;5095717;28;19924;-48
2022/04/28 11:31:08;;;;;;;;;;;14.70;95.70;;;;;;5095410;28;19931;-47
2022/04/28 11:33:33;;;;;;;;;;;14.50;95.70;;;;;;5095535;28;19967;-50
2022/04/28 11:35:59;;;;;;;;;;;14.20;96.00;;;;;;5095369;28;19967;-47
2022/04/28 11:38:25;;;;;;;;;;;14.60;97.10;;;;;;5095395;28;19970;-46
2022/04/28 11:41:01;;;;;;;;;;;14.70;96.70;;;;;;5095293;28;19932;-47
2022/04/28 11:43:31;;;;;;;;;;;15.00;96.20;;;;;;5095294;28;19931;-47
2022/04/28 11:45:58;;;;;;;;;;;15.30;95.80;;;;;;5095374;28;19992;-48
2022/04/28 11:48:25;;;;;;;;;;;15.30;95.60;;;;;;5094874;28;19925;-47
2022/04/28 11:50:51;;;;;;;;;;;15.00;94.10;;;;;;5094863;28;19931;-47
2022/04/28 11:53:17;;;;;;;;;;;15.00;95.30;;;;;;5095195;28;19920;-47
2022/04/28 11:55:42;;;;;;;;;;;15.20;95.60;;;;;;5095102;28;19924;-47
2022/04/28 11:58:09;;;;;;;;;;;15.20;94.50;;;;;;5095022;28;19985;-47
2022/04/28 12:00:36;;;;;;;;;;;15.30;95.10;;;;;;5094973;28;20023;-47
2022/04/28 12:03:03;;;;;;;;;;;15.00;94.20;;;;;;5094709;28;19928;-47
2022/04/28 12:05:31;;;;;;;;;;;15.30;93.60;;;;;;5095003;28;20016;-47
2022/04/28 12:07:56;;;;;;;;;;;15.20;94.70;;;;;;5094577;28;20336;-47
2022/04/28 12:15:50;;;;;;;;;;;15.30;95.80;;;;;;5094682;28;19978;-47
2022/04/28 12:21:01;;;;;;;;;;;14.90;93.30;;;;;;5094577;28;19931;-48
2022/04/28 12:23:31;;;;;;;;;;;14.90;94.60;;;;;;5076570;28;19924;-46
2022/04/28 12:26:00;;;;;;;;;;;14.70;94.50;;;;;;5094369;28;20311;-48
2022/04/28 12:28:52;;;;;;;;;;;14.90;95.00;;;;;;5094420;28;19930;-47
2022/04/28 12:31:26;;;;;;;;;;;15.40;95.50;;;;;;5092510;28;20251;-48
2022/04/28 12:33:52;;;;;;;;;;;15.30;93.00;;;;;;5094408;28;19932;-46
2022/04/28 12:36:18;;;;;;;;;;;14.60;93.30;;;;;;5094217;28;20336;-48
2022/04/28 12:38:44;;;;;;;;;;;14.60;94.60;;;;;;5094258;28;19977;-47
2022/04/28 12:41:14;;;;;;;;;;;15.40;95.40;;;;;;5094541;28;20380;-47
2022/04/28 12:43:42;;;;;;;;;;;15.20;95.20;;;;;;5093961;28;20394;-48
2022/04/28 12:46:08;;;;;;;;;;;15.30;95.40;;;;;;5093902;28;19935;-47
2022/04/28 12:48:35;;;;;;;;;;;15.30;94.70;;;;;;5094166;28;19932;-48
2022/04/28 12:51:11;;;;;;;;;;;15.00;94.50;;;;;;5093527;28;20378;-48
2022/04/28 12:53:38;;;;;;;;;;;15.20;95.20;;;;;;5094056;28;19927;-49
2022/04/28 12:56:07;;;;;;;;;;;15.70;94.20;;;;;;5093968;28;19982;-50
2022/04/28 12:58:40;;;;;;;;;;;15.40;93.80;;;;;;5093923;28;19928;-50
2022/04/28 13:01:13;;;;;;;;;;;15.20;94.00;;;;;;5075625;28;19924;-49
2022/04/28 13:03:40;;;;;;;;;;;15.50;94.60;;;;;;5093811;28;20019;-48
2022/04/28 13:06:06;;;;;;;;;;;15.20;94.70;;;;;;5093590;28;20336;-47
2022/04/28 13:08:32;;;;;;;;;;;15.40;94.30;;;;;;5093690;28;19924;-50
2022/04/28 13:10:57;;;;;;;;;;;15.10;93.70;;;;;;5093705;28;19924;-47
2022/04/28 13:13:23;;;;;;;;;;;15.30;93.90;;;;;;5093601;28;20029;-50
2022/04/28 13:15:48;;;;;;;;;;;15.20;93.70;;;;;;5093594;28;19924;-48
2022/04/28 13:18:14;;;;;;;;;;;15.20;94.10;;;;;;5093738;28;19924;-48
2022/04/28 13:20:39;;;;;;;;;;;15.20;93.60;;;;;;5093597;28;20453;-47
2022/04/28 13:23:05;;;;;;;;;;;15.40;93.80;;;;;;5093598;28;19924;-49
2022/04/28 13:25:30;;;;;;;;;;;15.60;93.10;;;;;;5093406;28;19924;-48
2022/04/28 13:27:56;;;;;;;;;;;15.50;93.20;;;;;;5093208;28;20007;-50
2022/04/28 13:30:21;;;;;;;;;;;15.40;93.50;;;;;;5093400;28;19924;-49
2022/04/28 13:32:47;;;;;;;;;;;15.30;94.20;;;;;;5093566;28;19981;-49
2022/04/28 13:35:12;;;;;;;;;;;15.50;93.70;;;;;;5075216;28;20361;-49
2022/04/28 13:37:38;;;;;;;;;;;15.30;93.40;;;;;;5075558;28;19924;-47
2022/04/28 13:40:04;;;;;;;;;;;15.50;93.10;;;;;;5093294;28;20023;-48
2022/04/28 13:42:29;;;;;;;;;;;15.40;92.60;;;;;;5093240;28;19924;-48
2022/04/28 13:44:56;;;;;;;;;;;15.20;92.90;;;;;;5075331;28;19972;-48
2022/04/28 13:47:21;;;;;;;;;;;15.30;93.10;;;;;;5092979;28;19924;-50
2022/04/28 13:49:47;;;;;;;;;;;15.40;94.10;;;;;;5093345;28;19931;-49
2022/04/28 13:52:12;;;;;;;;;;;15.60;93.00;;;;;;5092774;28;19931;-52
2022/04/28 13:54:38;;;;;;;;;;;15.40;92.10;;;;;;5093365;28;19931;-49
2022/04/28 13:57:03;;;;;;;;;;;15.50;93.20;;;;;;5093385;28;20297;-48
2022/04/28 13:59:28;;;;;;;;;;;15.70;93.60;;;;;;5093077;28;19969;-49
2022/04/28 14:01:54;;;;;;;;;;;15.70;93.70;;;;;;5092978;28;20274;-51
2022/04/28 14:04:24;;;;;;;;;;;15.30;93.10;;;;;;5093065;28;19931;-47
2022/04/28 14:06:51;;;;;;;;;;;15.50;93.30;;;;;;5093507;28;19924;-49
2022/04/28 14:09:17;;;;;;;;;;;15.40;93.70;;;;;;5093162;28;19931;-49
2022/04/28 14:11:42;;;;;;;;;;;15.30;93.80;;;;;;5092999;28;19924;-47
2022/04/28 14:14:08;;;;;;;;;;;15.20;93.50;;;;;;5092949;28;20278;-49
2022/04/28 14:16:33;;;;;;;;;;;15.40;94.20;;;;;;5092929;28;20010;-49
2022/04/28 14:18:59;;;;;;;;;;;15.40;94.10;;;;;;5074882;28;19931;-48
2022/04/28 14:21:24;;;;;;;;;;;15.40;94.20;;;;;;5092911;28;19924;-47
2022/04/28 14:23:50;;;;;;;;;;;15.10;93.90;;;;;;5092996;28;19924;-48
2022/04/28 14:26:16;;;;;;;;;;;15.20;94.50;;;;;;5074735;28;19985;-48
2022/04/28 14:28:41;;;;;;;;;;;15.20;95.10;;;;;;5092960;28;20362;-47
2022/04/28 14:31:07;;;;;;;;;;;15.30;94.20;;;;;;5092753;28;20013;-48
2022/04/28 14:33:32;;;;;;;;;;;15.40;95.70;;;;;;5092977;28;19955;-48
2022/04/28 14:35:58;;;;;;;;;;;15.60;93.70;;;;;;5092925;28;19924;-49
2022/04/28 14:38:23;;;;;;;;;;;15.40;93.70;;;;;;5093605;28;19924;-48
2022/04/28 14:40:49;;;;;;;;;;;15.20;93.50;;;;;;5096521;28;19924;-49
2022/04/28 14:43:14;;;;;;;;;;;15.50;94.10;;;;;;5096453;28;19924;-48
2022/04/28 14:45:41;;;;;;;;;;;15.70;94.60;;;;;;5078417;28;20382;-47
2022/04/28 14:48:07;;;;;;;;;;;15.50;94.10;;;;;;5096348;28;19924;-48
2022/04/28 14:53:16;;;;;;;;;;;15.30;94.80;;;;;;5096313;28;20324;-50
2022/04/28 14:55:42;;;;;;;;;;;15.00;95.00;;;;;;5096244;28;19930;-48
2022/04/28 14:58:07;;;;;;;;;;;14.80;94.50;;;;;;5096070;28;19928;-50
2022/04/28 15:00:33;;;;;;;;;;;15.20;95.10;;;;;;5096157;28;19924;-49
2022/04/28 15:02:59;;;;;;;;;;;15.00;94.70;;;;;;5077826;28;19993;-52
2022/04/28 15:05:25;;;;;;;;;;;15.20;95.80;;;;;;5096184;28;20340;-49